createdAt,value
2019-03-23T00:00:44.620Z,26.37
2019-03-23T00:03:15.727Z,25.37
2019-03-23T00:05:46.068Z,24.43
2019-03-23T00:08:16.521Z,26.70
2019-03-23T00:10:47.199Z,22.40
2019-03-23T00:13:18.184Z,24.17
2019-03-23T00:15:48.630Z,25.77
2019-03-23T00:18:19.393Z,26.43
2019-03-23T00:20:50.152Z,22.80
2019-03-23T00:23:20.720Z,22.47
2019-03-23T00:25:51.251Z,30.30
2019-03-23T00:28:22.247Z,27.00
2019-03-23T00:30:53.416Z,22.57
2019-03-23T00:33:24.133Z,30.03
2019-03-23T00:35:54.587Z,23.53
2019-03-23T00:38:24.852Z,25.37
2019-03-23T00:40:55.803Z,25.57
2019-03-23T00:43:26.702Z,25.20
2019-03-23T00:45:57.189Z,25.60
2019-03-23T00:48:27.992Z,28.80
2019-03-23T00:50:58.460Z,25.20
2019-03-23T00:53:29.016Z,25.33
2019-03-23T00:55:59.697Z,29.60
2019-03-23T00:58:30.687Z,37.20
2019-03-23T01:01:01.495Z,43.67
2019-03-23T01:03:32.251Z,40.90
2019-03-23T01:06:02.664Z,45.30
2019-03-23T01:08:33.218Z,47.27
2019-03-23T01:11:03.749Z,50.27
2019-03-23T01:13:34.959Z,53.70
2019-03-23T01:16:05.599Z,51.00
2019-03-23T01:18:35.982Z,50.40
2019-03-23T01:21:06.758Z,58.23
2019-03-23T01:23:37.535Z,70.17
2019-03-23T01:26:08.119Z,65.40
2019-03-23T01:28:39.165Z,55.37
2019-03-23T01:31:09.906Z,66.10
2019-03-23T01:33:40.583Z,70.87
2019-03-23T01:36:11.068Z,63.23
2019-03-23T01:38:41.806Z,69.37
2019-03-23T01:41:12.872Z,76.80
2019-03-23T01:43:43.499Z,81.97
2019-03-23T01:46:13.935Z,74.87
2019-03-23T01:48:44.478Z,86.33
2019-03-23T01:51:14.995Z,84.23
2019-03-23T01:53:45.491Z,85.27
2019-03-23T01:56:16.108Z,91.20
2019-03-23T01:58:47.234Z,81.37
2019-03-23T02:01:17.575Z,79.57
2019-03-23T02:03:48.291Z,95.87
2019-03-23T02:06:19.063Z,98.97
2019-03-23T02:08:49.756Z,102.00
2019-03-23T02:11:20.531Z,97.27
2019-03-23T02:13:51.163Z,100.77
2019-03-23T02:16:22.065Z,105.37
2019-03-23T02:18:52.495Z,99.40
2019-03-23T02:21:22.825Z,104.93
2019-03-23T02:23:53.339Z,106.10
2019-03-23T02:26:24.516Z,104.60
2019-03-23T02:28:55.104Z,106.93
2019-03-23T02:31:25.486Z,97.40
2019-03-23T02:33:56.106Z,99.30
2019-03-23T02:36:26.376Z,92.30
2019-03-23T02:38:56.664Z,94.00
2019-03-23T02:41:27.445Z,84.33
2019-03-23T02:43:58.206Z,96.10
2019-03-23T02:46:28.597Z,84.70
2019-03-23T02:48:59.269Z,85.20
2019-03-23T02:51:29.960Z,87.40
2019-03-23T02:54:00.272Z,85.80
2019-03-23T02:56:30.605Z,80.90
2019-03-23T02:59:00.864Z,87.00
2019-03-23T03:01:31.199Z,77.10
2019-03-23T03:04:01.880Z,81.73
2019-03-23T03:06:32.852Z,77.60
2019-03-23T03:09:04.165Z,76.67
2019-03-23T03:11:34.811Z,78.30
2019-03-23T03:14:05.152Z,75.43
2019-03-23T03:16:36.376Z,75.07
2019-03-23T03:19:07.539Z,83.43
2019-03-23T03:21:37.819Z,92.20
2019-03-23T03:24:08.289Z,74.40
2019-03-23T03:26:39.425Z,78.00
2019-03-23T03:29:09.985Z,82.50
2019-03-23T03:31:40.595Z,76.77
2019-03-23T03:34:11.309Z,72.23
2019-03-23T03:36:41.968Z,89.90
2019-03-23T03:39:12.704Z,80.17
2019-03-23T03:41:43.766Z,73.70
2019-03-23T03:44:31.459Z,92.47
2019-03-23T03:47:02.154Z,81.20
2019-03-23T03:49:33.138Z,78.57
2019-03-23T03:52:03.527Z,74.57
2019-03-23T03:54:33.865Z,84.27
2019-03-23T03:57:04.631Z,78.87
2019-03-23T03:59:35.474Z,91.63
2019-03-23T04:02:06.687Z,90.83
2019-03-23T04:04:38.251Z,92.70
2019-03-23T04:07:09.079Z,96.13
2019-03-23T04:09:40.521Z,88.47
2019-03-23T04:12:11.755Z,94.90
2019-03-23T04:14:42.075Z,102.93
2019-03-23T04:17:13.052Z,101.87
2019-03-23T04:19:43.528Z,104.33
2019-03-23T04:22:13.932Z,112.43
2019-03-23T04:24:44.492Z,101.80
2019-03-23T04:27:16.497Z,111.40
2019-03-23T04:29:47.476Z,100.80
2019-03-23T04:32:17.954Z,100.87
2019-03-23T04:34:48.530Z,110.97
2019-03-23T04:37:19.284Z,104.97
2019-03-23T04:39:50.065Z,111.67
2019-03-23T04:42:20.623Z,105.07
2019-03-23T04:44:51.450Z,114.70
2019-03-23T04:47:22.608Z,109.83
2019-03-23T04:49:53.341Z,101.60
2019-03-23T04:52:24.372Z,108.30
2019-03-23T04:54:55.307Z,120.83
2019-03-23T04:57:31.212Z,102.63
2019-03-23T05:00:01.814Z,108.33
2019-03-23T05:02:32.293Z,111.80
2019-03-23T05:05:03.280Z,125.47
2019-03-23T05:07:34.990Z,112.53
2019-03-23T05:10:09.138Z,131.03
2019-03-23T05:12:39.805Z,125.90
2019-03-23T05:15:11.003Z,135.37
2019-03-23T05:17:41.573Z,123.57
2019-03-23T05:20:14.022Z,126.83
2019-03-23T05:22:44.638Z,109.73
2019-03-23T05:25:25.247Z,123.63
2019-03-23T05:27:56.150Z,123.97
2019-03-23T05:30:27.836Z,121.53
2019-03-23T05:32:58.812Z,101.37
2019-03-23T05:35:29.483Z,107.47
2019-03-23T05:38:00.139Z,109.93
2019-03-23T05:40:31.025Z,119.43
2019-03-23T05:43:01.781Z,118.10
2019-03-23T05:45:33.024Z,113.77
2019-03-23T05:48:03.583Z,101.73
2019-03-23T05:50:34.921Z,121.67
2019-03-23T05:53:05.328Z,125.63
2019-03-23T05:55:36.003Z,116.57
2019-03-23T05:58:06.682Z,110.77
2019-03-23T06:00:37.527Z,101.13
2019-03-23T06:03:08.156Z,102.30
2019-03-23T06:05:38.729Z,99.00
2019-03-23T06:08:09.135Z,99.13
2019-03-23T06:10:39.930Z,101.83
2019-03-23T06:13:10.714Z,106.17
2019-03-23T06:15:41.152Z,124.83
2019-03-23T06:18:12.385Z,104.73
2019-03-23T06:20:43.038Z,102.03
2019-03-23T06:23:13.467Z,104.57
2019-03-23T06:25:44.159Z,88.03
2019-03-23T06:28:14.927Z,104.63
2019-03-23T06:30:45.203Z,91.20
2019-03-23T06:33:15.726Z,103.03
2019-03-23T06:35:46.534Z,108.93
2019-03-23T06:38:16.876Z,98.47
2019-03-23T06:40:47.759Z,102.87
2019-03-23T06:43:18.851Z,106.63
2019-03-23T06:45:49.347Z,98.37
2019-03-23T06:48:19.936Z,105.53
2019-03-23T06:50:50.534Z,97.27
2019-03-23T06:53:21.297Z,94.90
2019-03-23T06:55:52.187Z,101.03
2019-03-23T06:58:22.711Z,99.87
2019-03-23T07:00:53.347Z,94.13
2019-03-23T07:03:24.186Z,88.90
2019-03-23T07:05:54.730Z,84.83
2019-03-23T07:08:31.842Z,87.67
2019-03-23T07:10:59.763Z,86.73
2019-03-23T07:13:31.334Z,90.70
2019-03-23T07:16:01.670Z,84.43
2019-03-23T07:18:32.273Z,90.40
2019-03-23T07:21:02.699Z,98.13
2019-03-23T07:23:32.940Z,103.37
2019-03-23T07:26:03.212Z,91.20
2019-03-23T07:28:33.719Z,84.27
2019-03-23T07:31:04.090Z,89.23
2019-03-23T07:33:34.968Z,80.60
2019-03-23T07:36:05.678Z,92.33
2019-03-23T07:38:36.197Z,90.10
2019-03-23T07:41:06.863Z,88.00
2019-03-23T07:43:37.546Z,85.00
2019-03-23T07:46:08.292Z,97.93
2019-03-23T07:48:39.053Z,88.83
2019-03-23T07:51:09.577Z,88.90
2019-03-23T07:53:40.354Z,85.63
2019-03-23T07:56:11.162Z,104.80
2019-03-23T07:58:41.847Z,84.37
2019-03-23T08:01:12.051Z,86.27
2019-03-23T08:03:42.448Z,83.40
2019-03-23T08:06:13.050Z,81.53
2019-03-23T08:08:43.577Z,96.60
2019-03-23T08:11:14.463Z,90.20
2019-03-23T08:13:45.144Z,82.10
2019-03-23T08:16:15.898Z,84.20
2019-03-23T08:18:48.324Z,96.60
2019-03-23T08:21:18.713Z,88.20
2019-03-23T08:23:49.126Z,80.90
2019-03-23T08:26:19.955Z,87.00
2019-03-23T08:28:50.411Z,80.97
2019-03-23T08:31:21.419Z,84.50
2019-03-23T08:33:52.328Z,80.63
2019-03-23T08:36:23.053Z,83.03
2019-03-23T08:38:53.867Z,82.87
2019-03-23T08:41:24.463Z,94.70
2019-03-23T08:43:55.102Z,85.83
2019-03-23T08:46:25.591Z,75.93
2019-03-23T08:48:56.442Z,72.00
2019-03-23T08:51:26.965Z,71.33
2019-03-23T08:53:57.944Z,75.33
2019-03-23T08:56:29.849Z,74.10
2019-03-23T08:59:00.726Z,63.07
2019-03-23T09:01:31.286Z,63.03
2019-03-23T09:04:05.595Z,65.37
2019-03-23T09:06:37.764Z,62.43
2019-03-23T09:09:08.710Z,60.37
2019-03-23T09:11:39.224Z,62.00
2019-03-23T09:14:17.470Z,71.30
2019-03-23T09:16:48.574Z,68.33
2019-03-23T09:19:26.148Z,68.47
2019-03-23T09:21:56.702Z,70.33
2019-03-23T09:24:27.271Z,67.57
2019-03-23T09:26:57.978Z,66.97
2019-03-23T09:29:28.615Z,75.80
2019-03-23T09:31:59.243Z,74.40
2019-03-23T09:34:30.399Z,63.00
2019-03-23T09:37:00.933Z,63.20
2019-03-23T09:39:31.591Z,74.97
2019-03-23T09:42:03.664Z,73.93
2019-03-23T09:44:39.587Z,80.10
2019-03-23T09:47:10.184Z,76.83
2019-03-23T09:49:40.484Z,73.87
2019-03-23T09:52:11.871Z,77.00
2019-03-23T09:54:43.220Z,66.60
2019-03-23T09:57:13.861Z,67.80
2019-03-23T09:59:44.688Z,79.83
2019-03-23T10:02:16.304Z,80.67
2019-03-23T10:04:46.943Z,80.40
2019-03-23T10:07:22.972Z,79.50
2019-03-23T10:09:53.266Z,67.70
2019-03-23T10:12:23.900Z,73.27
2019-03-23T10:14:54.784Z,73.47
2019-03-23T10:17:28.493Z,67.83
2019-03-23T10:19:59.384Z,73.53
2019-03-23T10:22:29.937Z,70.57
2019-03-23T10:25:00.888Z,73.93
2019-03-23T10:27:31.468Z,77.20
2019-03-23T10:30:06.102Z,72.83
2019-03-23T10:32:39.095Z,72.40
2019-03-23T10:35:10.000Z,68.73
2019-03-23T10:37:40.699Z,66.00
2019-03-23T10:40:11.652Z,76.37
2019-03-23T10:42:45.217Z,65.50
2019-03-23T10:45:16.194Z,75.60
2019-03-23T10:47:46.678Z,79.77
2019-03-23T10:50:17.852Z,86.00
2019-03-23T10:52:48.663Z,67.93
2019-03-23T10:55:19.314Z,72.57
2019-03-23T10:57:50.221Z,78.53
2019-03-23T11:00:20.903Z,75.07
2019-03-23T11:02:51.538Z,72.30
2019-03-23T11:05:22.645Z,79.63
2019-03-23T11:07:54.080Z,67.07
2019-03-23T11:10:24.760Z,69.77
2019-03-23T11:12:55.061Z,78.13
2019-03-23T11:15:26.065Z,70.03
2019-03-23T11:17:56.674Z,72.30
2019-03-23T11:20:27.768Z,69.00
2019-03-23T11:22:58.477Z,75.57
2019-03-23T11:25:28.983Z,71.17
2019-03-23T11:28:00.373Z,67.17
2019-03-23T11:30:30.876Z,71.90
2019-03-23T11:33:01.215Z,74.20
2019-03-23T11:35:31.678Z,73.33
2019-03-23T11:38:03.043Z,71.80
2019-03-23T11:40:33.550Z,68.40
2019-03-23T11:43:04.170Z,77.73
2019-03-23T11:45:35.002Z,69.50
2019-03-23T11:48:05.936Z,72.90
2019-03-23T11:50:37.098Z,73.10
2019-03-23T11:53:07.696Z,73.40
2019-03-23T11:55:38.782Z,68.23
2019-03-23T11:58:09.394Z,105.33
2019-03-23T12:00:39.818Z,85.83
2019-03-23T12:03:10.314Z,68.20
2019-03-23T12:05:41.201Z,67.20
2019-03-23T12:08:11.853Z,73.23
2019-03-23T12:10:42.315Z,67.10
2019-03-23T12:13:13.143Z,74.77
2019-03-23T12:15:43.634Z,67.10
2019-03-23T12:18:14.156Z,70.43
2019-03-23T12:20:44.602Z,71.20
2019-03-23T12:23:15.915Z,72.90
2019-03-23T12:25:46.391Z,77.83
2019-03-23T12:28:17.588Z,70.93
2019-03-23T12:31:10.241Z,64.93
2019-03-23T12:33:41.016Z,78.43
2019-03-23T12:36:11.421Z,59.57
2019-03-23T12:38:42.523Z,71.00
2019-03-23T12:41:22.755Z,74.33
2019-03-23T12:43:47.925Z,66.10
2019-03-23T12:46:18.583Z,65.03
2019-03-23T12:48:49.201Z,59.07
2019-03-23T12:51:19.958Z,61.70
2019-03-23T12:53:50.416Z,67.27
2019-03-23T12:56:20.835Z,65.53
2019-03-23T12:58:51.758Z,68.67
2019-03-23T13:01:22.270Z,68.63
2019-03-23T13:03:52.779Z,75.23
2019-03-23T13:06:23.505Z,75.17
2019-03-23T13:08:54.076Z,63.10
2019-03-23T13:11:34.767Z,69.83
2019-03-23T13:13:59.751Z,74.13
2019-03-23T13:16:30.476Z,62.93
2019-03-23T13:19:01.163Z,61.63
2019-03-23T13:21:32.076Z,71.63
2019-03-23T13:24:02.471Z,64.70
2019-03-23T13:26:33.263Z,60.30
2019-03-23T13:29:03.725Z,74.40
2019-03-23T13:31:35.501Z,61.80
2019-03-23T13:34:09.890Z,54.83
2019-03-23T13:36:40.835Z,65.37
2019-03-23T13:39:11.386Z,71.60
2019-03-23T13:41:51.578Z,63.47
2019-03-23T13:44:29.831Z,58.60
2019-03-23T13:47:00.765Z,60.90
2019-03-23T13:49:31.279Z,61.10
2019-03-23T13:52:02.016Z,63.40
2019-03-23T13:54:32.723Z,58.57
2019-03-23T13:57:16.092Z,55.63
2019-03-23T13:59:52.243Z,55.43
2019-03-23T14:02:23.288Z,59.33
2019-03-23T14:05:12.217Z,60.80
2019-03-23T14:07:44.495Z,57.33
2019-03-23T14:10:15.252Z,56.90
2019-03-23T14:12:45.591Z,56.07
2019-03-23T14:15:16.525Z,58.37
2019-03-23T14:17:47.067Z,58.33
2019-03-23T14:20:18.095Z,57.57
2019-03-23T14:22:51.035Z,57.90
2019-03-23T14:25:24.327Z,57.40
2019-03-23T14:27:55.755Z,62.17
2019-03-23T14:30:26.166Z,58.93
2019-03-23T14:33:01.126Z,57.97
2019-03-23T14:35:31.581Z,57.43
2019-03-23T14:38:02.038Z,54.67
2019-03-23T14:40:32.992Z,60.03
2019-03-23T14:43:20.069Z,62.03
2019-03-23T14:45:50.642Z,54.33
2019-03-23T14:48:21.463Z,54.57
2019-03-23T14:50:51.935Z,59.13
2019-03-23T14:53:22.747Z,64.43
2019-03-23T14:55:53.157Z,57.83
2019-03-23T14:58:47.681Z,54.87
2019-03-23T15:01:11.002Z,56.70
2019-03-23T15:03:41.823Z,55.37
2019-03-23T15:06:12.313Z,56.00
2019-03-23T15:08:42.840Z,60.00
2019-03-23T15:11:13.415Z,61.13
2019-03-23T15:13:43.845Z,59.13
2019-03-23T15:16:14.722Z,54.30
2019-03-23T15:18:45.669Z,57.77
2019-03-23T15:21:16.204Z,52.43
2019-03-23T15:23:47.228Z,63.87
2019-03-23T15:26:17.916Z,57.87
2019-03-23T15:28:48.623Z,60.10
2019-03-23T15:31:19.268Z,58.27
2019-03-23T15:33:50.127Z,60.10
2019-03-23T15:36:20.319Z,60.43
2019-03-23T15:38:52.662Z,65.17
2019-03-23T15:41:29.095Z,53.23
2019-03-23T15:44:00.484Z,66.07
2019-03-23T15:46:31.467Z,53.50
2019-03-23T15:49:02.367Z,56.57
2019-03-23T15:51:32.891Z,58.97
2019-03-23T15:54:03.616Z,61.07
2019-03-23T15:56:34.845Z,54.20
2019-03-23T15:59:05.595Z,51.10
2019-03-23T16:01:36.067Z,58.43
2019-03-23T16:04:09.201Z,59.70
2019-03-23T16:06:40.046Z,52.57
2019-03-23T16:09:10.720Z,46.40
2019-03-23T16:11:41.411Z,46.57
2019-03-23T16:14:12.557Z,42.50
2019-03-23T16:16:43.291Z,44.77
2019-03-23T16:19:14.145Z,42.57
2019-03-23T16:21:44.531Z,43.10
2019-03-23T16:24:15.392Z,52.67
2019-03-23T16:26:45.792Z,51.40
2019-03-23T16:29:16.281Z,48.40
2019-03-23T16:31:46.834Z,46.40
2019-03-23T16:34:17.482Z,41.17
2019-03-23T16:36:47.975Z,43.20
2019-03-23T16:39:18.581Z,38.07
2019-03-23T16:41:50.755Z,43.87
2019-03-23T16:44:33.739Z,38.27
2019-03-23T16:47:04.315Z,25.83
2019-03-23T16:49:34.684Z,29.70
2019-03-23T16:52:05.257Z,25.13
2019-03-23T16:54:36.184Z,24.20
2019-03-23T16:57:06.751Z,23.93
2019-03-23T16:59:37.472Z,18.83
2019-03-23T17:02:07.980Z,21.60
2019-03-23T17:04:38.840Z,17.40
2019-03-23T17:07:09.382Z,16.53
2019-03-23T17:09:40.704Z,19.03
2019-03-23T17:12:11.272Z,12.93
2019-03-23T17:14:42.045Z,20.87
2019-03-23T17:17:12.595Z,21.17
2019-03-23T17:19:43.555Z,15.90
2019-03-23T17:22:13.975Z,14.07
2019-03-23T17:24:45.119Z,14.00
2019-03-23T17:27:15.758Z,14.87
2019-03-23T17:29:46.700Z,15.50
2019-03-23T17:32:17.494Z,14.63
2019-03-23T17:34:47.861Z,16.03
2019-03-23T17:37:18.398Z,15.80
2019-03-23T17:39:49.315Z,17.20
2019-03-23T17:42:19.758Z,24.23
2019-03-23T17:44:50.190Z,15.53
2019-03-23T17:47:20.708Z,14.50
2019-03-23T17:49:51.293Z,18.33
2019-03-23T17:52:21.723Z,14.90
2019-03-23T17:54:52.693Z,17.50
2019-03-23T17:57:23.280Z,18.67
2019-03-23T17:59:53.692Z,18.20
2019-03-23T18:02:24.369Z,19.73
2019-03-23T18:04:55.368Z,16.83
2019-03-23T18:07:25.859Z,18.00
2019-03-23T18:09:56.909Z,21.40
2019-03-23T18:12:27.238Z,58.17
2019-03-23T18:14:58.316Z,48.43
2019-03-23T18:17:29.025Z,64.27
2019-03-23T18:19:59.651Z,58.73
2019-03-23T18:22:30.099Z,56.30
2019-03-23T18:25:00.643Z,40.47
2019-03-23T18:27:31.341Z,33.30
2019-03-23T18:30:02.376Z,27.57
2019-03-23T18:32:33.140Z,19.87
2019-03-23T18:35:03.410Z,21.53
2019-03-23T18:37:33.674Z,18.83
2019-03-23T18:40:08.134Z,14.37
2019-03-23T18:42:38.013Z,16.23
2019-03-23T18:45:08.648Z,19.03
2019-03-23T18:47:39.455Z,19.03
2019-03-23T18:50:11.132Z,17.30
2019-03-23T18:52:41.974Z,13.70
2019-03-23T18:55:12.916Z,17.53
2019-03-23T18:57:43.248Z,15.83
2019-03-23T19:00:16.131Z,14.30
2019-03-23T19:02:47.007Z,16.20
2019-03-23T19:05:17.419Z,17.40
2019-03-23T19:07:47.768Z,15.83
2019-03-23T19:10:18.544Z,14.90
2019-03-23T19:12:49.204Z,16.77
2019-03-23T19:15:19.713Z,18.27
2019-03-23T19:17:50.074Z,19.03
2019-03-23T19:20:22.116Z,19.73
2019-03-23T19:22:52.543Z,14.30
2019-03-23T19:25:23.351Z,18.43
2019-03-23T19:27:53.751Z,14.27
2019-03-23T19:30:24.629Z,18.10
2019-03-23T19:32:55.363Z,13.47
2019-03-23T19:35:25.635Z,14.17
2019-03-23T19:37:56.143Z,20.70
2019-03-23T19:40:27.044Z,22.70
2019-03-23T19:42:59.580Z,21.20
2019-03-23T19:45:29.550Z,18.60
2019-03-23T19:48:00.907Z,16.50
2019-03-23T19:50:31.532Z,16.53
2019-03-23T19:53:01.956Z,16.77
2019-03-23T19:55:32.477Z,20.90
2019-03-23T19:58:03.239Z,15.83
2019-03-23T20:00:33.773Z,17.97
2019-03-23T20:03:04.433Z,19.50
2019-03-23T20:05:34.734Z,21.80
2019-03-23T20:08:05.080Z,21.87
2019-03-23T20:10:35.920Z,15.30
2019-03-23T20:13:06.766Z,17.73
2019-03-23T20:15:37.223Z,11.50
2019-03-23T20:18:08.273Z,19.37
2019-03-23T20:20:39.003Z,16.83
2019-03-23T20:23:09.447Z,20.20
2019-03-23T20:25:40.009Z,12.67
2019-03-23T20:28:10.440Z,13.33
2019-03-23T20:30:40.821Z,21.50
2019-03-23T20:33:19.358Z,12.33
2019-03-23T20:35:46.015Z,7.57
2019-03-23T20:38:16.904Z,10.73
2019-03-23T20:40:47.932Z,15.93
2019-03-23T20:43:18.285Z,12.27
2019-03-23T20:45:49.288Z,11.27
2019-03-23T20:48:20.162Z,14.23
2019-03-23T20:50:51.106Z,16.20
2019-03-23T20:53:21.728Z,13.53
2019-03-23T20:55:52.155Z,13.33
2019-03-23T20:58:23.355Z,14.60
2019-03-23T21:00:53.648Z,14.27
2019-03-23T21:03:24.100Z,15.77
2019-03-23T21:05:55.106Z,18.03
2019-03-23T21:08:25.439Z,24.77
2019-03-23T21:10:55.847Z,15.40
2019-03-23T21:13:26.583Z,16.80
2019-03-23T21:15:57.442Z,12.33
2019-03-23T21:18:28.105Z,17.07
2019-03-23T21:20:59.125Z,14.70
2019-03-23T21:23:29.955Z,21.10
2019-03-23T21:26:00.288Z,18.63
2019-03-23T21:28:31.203Z,13.20
2019-03-23T21:31:02.151Z,17.87
2019-03-23T21:33:38.698Z,22.93
2019-03-23T21:36:04.954Z,19.67
2019-03-23T21:38:35.670Z,17.93
2019-03-23T21:41:06.615Z,21.23
2019-03-23T21:43:37.266Z,14.90
2019-03-23T21:46:07.779Z,14.80
2019-03-23T21:48:38.816Z,14.17
2019-03-23T21:51:09.179Z,24.20
2019-03-23T21:53:39.763Z,21.03
2019-03-23T21:56:10.240Z,12.23
2019-03-23T21:58:40.635Z,15.47
2019-03-23T22:01:11.222Z,9.10
2019-03-23T22:03:43.066Z,15.70
2019-03-23T22:06:14.328Z,10.10
2019-03-23T22:08:44.824Z,10.43
2019-03-23T22:11:15.632Z,14.30
2019-03-23T22:13:46.699Z,13.77
2019-03-23T22:16:16.959Z,18.23
2019-03-23T22:18:49.834Z,24.07
2019-03-23T22:21:21.167Z,18.93
2019-03-23T22:23:51.818Z,13.43
2019-03-23T22:26:22.080Z,12.90
2019-03-23T22:28:54.148Z,13.90
2019-03-23T22:31:24.707Z,16.70
2019-03-23T22:33:55.416Z,15.87
2019-03-23T22:36:26.133Z,14.80
2019-03-23T22:38:56.625Z,16.73
2019-03-23T22:41:26.927Z,14.43
2019-03-23T22:43:58.050Z,10.70
2019-03-23T22:46:28.507Z,11.77
2019-03-23T22:48:58.978Z,11.27
2019-03-23T22:51:29.823Z,18.17
2019-03-23T22:54:00.143Z,18.87
2019-03-23T22:56:30.707Z,10.90
2019-03-23T22:59:01.505Z,15.43
2019-03-23T23:01:32.168Z,14.33
2019-03-23T23:04:02.450Z,13.83
2019-03-23T23:06:33.335Z,17.03
2019-03-23T23:09:05.130Z,16.30
2019-03-23T23:11:35.759Z,18.83
2019-03-23T23:14:06.866Z,13.27
2019-03-23T23:16:37.414Z,15.07
2019-03-23T23:19:08.465Z,11.50
2019-03-23T23:21:39.018Z,12.93
2019-03-23T23:24:09.663Z,10.13
2019-03-23T23:26:40.271Z,12.50
2019-03-23T23:29:12.739Z,9.33
2019-03-23T23:31:43.073Z,9.60
2019-03-23T23:34:13.595Z,12.80
2019-03-23T23:36:43.970Z,11.10
2019-03-23T23:39:14.210Z,9.43
2019-03-23T23:41:44.804Z,17.30
2019-03-23T23:44:28.603Z,21.70
2019-03-23T23:46:54.714Z,10.90
2019-03-23T23:49:25.560Z,14.00
2019-03-23T23:51:56.005Z,21.10
2019-03-23T23:54:26.532Z,9.10
2019-03-23T23:56:57.635Z,11.37
2019-03-23T23:59:27.954Z,12.47
